createdAt,value
2023-05-16T00:01:44.510Z,2.28
2023-05-16T00:04:11.983Z,0.70
2023-05-16T00:06:39.487Z,1.45
2023-05-16T00:09:07.188Z,2.13
2023-05-16T00:11:34.593Z,1.98
2023-05-16T00:14:02.923Z,1.85
2023-05-16T00:16:30.674Z,3.40
2023-05-16T00:19:00.068Z,7.03
2023-05-16T00:21:27.624Z,3.33
2023-05-16T00:23:55.083Z,4.30
2023-05-16T00:26:22.501Z,3.45
2023-05-16T00:28:49.861Z,2.88
2023-05-16T00:31:17.145Z,3.03
2023-05-16T00:33:44.952Z,3.78
2023-05-16T00:36:12.407Z,1.63
2023-05-16T00:38:39.849Z,3.08
2023-05-16T00:41:07.231Z,2.55
2023-05-16T00:43:37.246Z,4.03
2023-05-16T00:46:04.608Z,5.38
2023-05-16T00:48:32.524Z,2.63
2023-05-16T00:51:01.837Z,2.83
2023-05-16T00:53:29.121Z,2.90
2023-05-16T00:55:58.303Z,4.43
2023-05-16T00:58:25.959Z,4.22
2023-05-16T01:00:53.582Z,4.15
2023-05-16T01:03:21.257Z,2.25
2023-05-16T01:05:49.983Z,3.35
2023-05-16T01:08:17.255Z,2.75
2023-05-16T01:10:52.880Z,3.42
2023-05-16T01:13:41.725Z,1.63
2023-05-16T01:16:41.368Z,1.60
2023-05-16T01:20:00.690Z,4.75
2023-05-16T01:22:37.866Z,3.50
2023-05-16T01:25:17.423Z,4.55
2023-05-16T01:27:46.157Z,3.05
2023-05-16T01:30:18.611Z,2.05
2023-05-16T01:32:46.803Z,1.95
2023-05-16T01:35:17.097Z,2.40
2023-05-16T01:38:09.774Z,1.45
2023-05-16T01:40:53.056Z,1.90
2023-05-16T01:43:33.877Z,3.75
2023-05-16T01:46:12.287Z,3.53
2023-05-16T01:49:17.181Z,1.88
2023-05-16T01:51:56.039Z,3.65
2023-05-16T01:54:26.750Z,2.75
2023-05-16T01:56:56.749Z,3.05
2023-05-16T01:59:26.312Z,4.93
2023-05-16T02:01:57.207Z,2.88
2023-05-16T02:04:24.678Z,3.92
2023-05-16T02:06:52.692Z,2.22
2023-05-16T02:09:20.057Z,2.35
2023-05-16T02:11:47.477Z,2.17
2023-05-16T02:14:15.295Z,2.15
2023-05-16T02:16:42.792Z,2.10
2023-05-16T02:19:10.235Z,2.80
2023-05-16T02:21:40.295Z,2.17
2023-05-16T02:24:07.677Z,2.63
2023-05-16T02:26:35.427Z,4.45
2023-05-16T02:29:02.980Z,1.45
2023-05-16T02:31:32.651Z,3.80
2023-05-16T02:34:01.058Z,2.70
2023-05-16T02:36:28.814Z,1.98
2023-05-16T02:38:56.150Z,3.47
2023-05-16T02:41:23.470Z,2.20
2023-05-16T02:43:50.833Z,3.25
2023-05-16T02:46:26.221Z,1.15
2023-05-16T02:48:54.457Z,1.88
2023-05-16T02:51:23.094Z,1.67
2023-05-16T02:53:51.272Z,3.63
2023-05-16T02:56:21.928Z,2.95
2023-05-16T02:58:50.775Z,4.68
2023-05-16T03:01:18.988Z,3.25
2023-05-16T03:03:46.555Z,3.60
2023-05-16T03:06:17.645Z,2.53
2023-05-16T03:08:45.155Z,3.40
2023-05-16T03:11:12.378Z,2.80
2023-05-16T03:13:41.897Z,2.17
2023-05-16T03:16:09.667Z,2.05
2023-05-16T03:18:37.090Z,3.83
2023-05-16T03:21:04.514Z,3.28
2023-05-16T03:23:31.993Z,3.35
2023-05-16T03:26:00.102Z,3.17
2023-05-16T03:28:27.554Z,2.60
2023-05-16T03:30:55.577Z,4.07
2023-05-16T03:33:24.677Z,3.13
2023-05-16T03:35:52.503Z,4.90
2023-05-16T03:38:19.913Z,2.45
2023-05-16T03:40:48.657Z,4.93
2023-05-16T03:43:16.091Z,2.50
2023-05-16T03:45:43.542Z,3.22
2023-05-16T03:48:11.114Z,4.47
2023-05-16T03:50:40.776Z,3.05
2023-05-16T03:53:10.364Z,4.20
2023-05-16T03:55:37.713Z,5.95
2023-05-16T03:58:05.234Z,5.50
2023-05-16T04:00:32.732Z,4.65
2023-05-16T04:03:00.070Z,2.58
2023-05-16T04:05:27.786Z,3.22
2023-05-16T04:07:55.303Z,4.43
2023-05-16T04:10:22.941Z,2.63
2023-05-16T04:12:50.382Z,3.05
2023-05-16T04:15:17.878Z,3.88
2023-05-16T04:17:45.631Z,6.82
2023-05-16T04:20:13.618Z,3.45
2023-05-16T04:22:41.074Z,5.72
2023-05-16T04:25:09.257Z,3.60
2023-05-16T04:27:36.864Z,4.80
2023-05-16T04:30:04.732Z,1.95
2023-05-16T04:32:35.504Z,6.10
2023-05-16T04:35:03.382Z,5.22
2023-05-16T04:37:31.434Z,5.70
2023-05-16T04:39:59.302Z,4.70
2023-05-16T04:42:27.031Z,2.17
2023-05-16T04:44:54.413Z,2.35
2023-05-16T04:47:21.789Z,3.72
2023-05-16T04:49:49.011Z,4.97
2023-05-16T04:52:16.893Z,3.55
2023-05-16T04:54:44.524Z,2.72
2023-05-16T04:57:11.811Z,3.03
2023-05-16T04:59:39.075Z,3.65
2023-05-16T05:02:07.959Z,2.50
2023-05-16T05:04:35.549Z,3.15
2023-05-16T05:07:03.188Z,4.75
2023-05-16T05:09:30.511Z,5.57
2023-05-16T05:11:57.833Z,3.67
2023-05-16T05:14:25.119Z,4.35
2023-05-16T05:16:52.545Z,4.22
2023-05-16T05:19:20.625Z,2.25
2023-05-16T05:21:48.011Z,5.90
2023-05-16T05:24:15.585Z,11.65
2023-05-16T05:26:43.156Z,5.22
2023-05-16T05:29:10.569Z,9.15
2023-05-16T05:31:37.991Z,3.97
2023-05-16T05:34:05.414Z,3.20
2023-05-16T05:36:32.826Z,4.57
2023-05-16T05:39:00.044Z,4.88
2023-05-16T05:41:27.391Z,4.80
2023-05-16T05:43:54.711Z,7.47
2023-05-16T05:46:22.228Z,4.82
2023-05-16T05:48:50.070Z,6.40
2023-05-16T05:51:17.945Z,3.92
2023-05-16T05:53:45.577Z,3.45
2023-05-16T05:56:13.098Z,6.05
2023-05-16T05:58:42.242Z,5.70
2023-05-16T06:01:10.970Z,6.18
2023-05-16T06:03:38.655Z,3.53
2023-05-16T06:06:06.392Z,5.97
2023-05-16T06:08:34.413Z,3.17
2023-05-16T06:11:01.988Z,4.03
2023-05-16T06:13:29.573Z,7.05
2023-05-16T06:15:56.980Z,3.78
2023-05-16T06:18:24.227Z,4.47
2023-05-16T06:20:53.061Z,4.07
2023-05-16T06:23:21.572Z,5.00
2023-05-16T06:25:49.038Z,6.80
2023-05-16T06:28:16.403Z,3.40
2023-05-16T06:30:43.663Z,5.25
2023-05-16T06:33:11.007Z,4.50
2023-05-16T06:35:38.553Z,5.30
2023-05-16T06:38:06.703Z,3.75
2023-05-16T06:40:34.067Z,7.68
2023-05-16T06:43:01.426Z,4.80
2023-05-16T06:45:29.060Z,2.40
2023-05-16T06:47:57.651Z,3.03
2023-05-16T06:50:25.231Z,5.75
2023-05-16T06:52:52.566Z,7.68
2023-05-16T06:55:20.302Z,5.50
2023-05-16T06:57:48.284Z,10.02
2023-05-16T07:00:16.571Z,6.53
2023-05-16T07:02:44.875Z,5.13
2023-05-16T07:05:12.561Z,9.82
2023-05-16T07:07:42.568Z,8.73
2023-05-16T07:10:10.412Z,5.95
2023-05-16T07:12:38.607Z,5.40
2023-05-16T07:15:06.535Z,4.30
2023-05-16T07:17:33.896Z,5.55
2023-05-16T07:20:03.591Z,4.82
2023-05-16T07:22:35.329Z,3.67
2023-05-16T07:25:02.728Z,4.82
2023-05-16T07:27:31.056Z,8.30
2023-05-16T07:29:58.524Z,4.28
2023-05-16T07:32:26.892Z,5.90
2023-05-16T07:34:54.309Z,6.40
2023-05-16T07:37:21.769Z,6.18
2023-05-16T07:39:49.084Z,6.15
2023-05-16T07:42:16.716Z,7.07
2023-05-16T07:44:44.235Z,7.00
2023-05-16T07:47:11.603Z,3.55
2023-05-16T07:49:38.979Z,5.97
2023-05-16T07:52:06.634Z,5.25
2023-05-16T07:54:38.452Z,2.92
2023-05-16T07:57:06.452Z,6.40
2023-05-16T07:59:33.998Z,8.68
2023-05-16T08:02:01.575Z,5.35
2023-05-16T08:04:29.220Z,11.85
2023-05-16T08:06:56.604Z,6.75
2023-05-16T08:09:23.991Z,6.07
2023-05-16T08:11:51.440Z,6.78
2023-05-16T08:14:19.158Z,6.40
2023-05-16T08:16:46.645Z,17.42
2023-05-16T08:19:14.133Z,5.13
2023-05-16T08:21:43.867Z,6.35
2023-05-16T08:24:12.179Z,7.15
2023-05-16T08:26:39.595Z,5.60
2023-05-16T08:29:06.953Z,5.97
2023-05-16T08:31:34.428Z,5.50
2023-05-16T08:34:06.691Z,6.45
2023-05-16T08:36:39.706Z,4.20
2023-05-16T08:39:07.654Z,12.65
2023-05-16T08:41:35.068Z,6.57
2023-05-16T08:44:02.496Z,6.40
2023-05-16T08:46:30.439Z,6.50
2023-05-16T08:49:01.165Z,23.33
2023-05-16T08:51:35.633Z,6.03
2023-05-16T08:54:13.691Z,8.85
2023-05-16T08:56:46.114Z,7.13
2023-05-16T08:59:13.949Z,8.20
2023-05-16T09:01:41.910Z,6.95
2023-05-16T09:04:10.596Z,6.53
2023-05-16T09:06:38.503Z,4.65
2023-05-16T09:09:08.305Z,7.38
2023-05-16T09:11:37.094Z,8.20
2023-05-16T09:14:05.861Z,25.65
2023-05-16T09:16:33.842Z,22.95
2023-05-16T09:19:02.315Z,43.90
2023-05-16T09:21:34.520Z,10.73
2023-05-16T09:24:09.696Z,9.93
2023-05-16T09:26:39.189Z,8.75
2023-05-16T09:29:13.701Z,6.15
2023-05-16T09:31:41.226Z,8.23
2023-05-16T09:34:11.537Z,8.90
2023-05-16T09:36:40.168Z,8.43
2023-05-16T09:39:09.422Z,6.80
2023-05-16T09:41:36.731Z,8.13
2023-05-16T09:44:07.602Z,5.65
2023-05-16T09:46:36.350Z,6.03
2023-05-16T09:49:03.792Z,9.95
2023-05-16T09:51:32.422Z,7.50
2023-05-16T09:54:00.784Z,8.27
2023-05-16T09:56:28.720Z,10.15
2023-05-16T09:58:56.149Z,10.98
2023-05-16T10:01:24.086Z,6.10
2023-05-16T10:03:51.834Z,4.68
2023-05-16T10:06:19.778Z,5.57
2023-05-16T10:08:48.169Z,3.33
2023-05-16T10:11:17.152Z,5.00
2023-05-16T10:13:50.881Z,5.18
2023-05-16T10:16:22.173Z,4.53
2023-05-16T10:18:50.399Z,8.50
2023-05-16T10:21:19.781Z,25.25
2023-05-16T10:23:50.550Z,3.95
2023-05-16T10:26:18.876Z,5.25
2023-05-16T10:28:46.580Z,17.33
2023-05-16T10:31:15.550Z,3.45
2023-05-16T10:33:43.428Z,3.17
2023-05-16T10:36:12.143Z,3.67
2023-05-16T10:38:40.703Z,2.95
2023-05-16T10:41:09.125Z,4.60
2023-05-16T10:43:37.091Z,3.92
2023-05-16T10:46:05.663Z,6.05
2023-05-16T10:48:35.532Z,6.78
2023-05-16T10:51:04.968Z,9.70
2023-05-16T10:53:36.730Z,4.85
2023-05-16T10:56:04.094Z,5.43
2023-05-16T10:58:36.885Z,6.15
2023-05-16T11:01:19.808Z,7.95
2023-05-16T11:04:02.403Z,5.22
2023-05-16T11:06:35.520Z,5.55
2023-05-16T11:09:12.156Z,3.97
2023-05-16T11:11:52.836Z,17.52
2023-05-16T11:14:29.056Z,36.20
2023-05-16T11:17:23.300Z,39.83
2023-05-16T11:19:53.136Z,8.35
2023-05-16T11:22:21.854Z,70.05
2023-05-16T11:24:54.181Z,5.53
2023-05-16T11:27:32.701Z,4.22
2023-05-16T11:30:13.509Z,33.90
2023-05-16T11:32:42.424Z,7.03
2023-05-16T11:35:14.514Z,10.55
2023-05-16T11:37:43.205Z,7.75
2023-05-16T11:40:12.527Z,10.52
2023-05-16T11:42:43.374Z,35.38
2023-05-16T11:45:19.396Z,17.08
2023-05-16T11:47:48.589Z,11.63
2023-05-16T11:50:23.846Z,8.70
2023-05-16T11:52:57.371Z,51.15
2023-05-16T11:55:41.158Z,120.30
2023-05-16T11:58:09.709Z,323.08
2023-05-16T12:00:37.276Z,12.38
2023-05-16T12:03:06.412Z,10.20
2023-05-16T12:05:35.534Z,9.73
2023-05-16T12:08:05.171Z,8.23
2023-05-16T12:10:35.051Z,7.72
2023-05-16T12:13:03.806Z,7.80
2023-05-16T12:15:31.769Z,7.15
2023-05-16T12:17:59.805Z,5.90
2023-05-16T12:20:27.552Z,6.95
2023-05-16T12:22:58.740Z,7.22
2023-05-16T12:25:31.062Z,8.07
2023-05-16T12:28:01.159Z,6.80
2023-05-16T12:30:30.540Z,7.07
2023-05-16T12:33:09.650Z,5.07
2023-05-16T12:35:42.955Z,6.88
2023-05-16T12:38:15.544Z,6.72
2023-05-16T12:40:44.519Z,7.40
2023-05-16T12:43:20.691Z,7.72
2023-05-16T12:45:53.065Z,7.82
2023-05-16T12:48:20.904Z,12.23
2023-05-16T12:50:48.999Z,11.10
2023-05-16T12:53:18.044Z,12.27
2023-05-16T12:55:45.961Z,28.25
2023-05-16T12:58:13.878Z,10.57
2023-05-16T13:00:41.392Z,17.02
2023-05-16T13:03:09.127Z,12.52
2023-05-16T13:05:36.778Z,28.70
2023-05-16T13:08:04.710Z,19.48
2023-05-16T13:10:32.116Z,16.13
2023-05-16T13:13:00.475Z,18.13
2023-05-16T13:15:28.435Z,21.30
2023-05-16T13:17:56.302Z,14.50
2023-05-16T13:20:25.705Z,14.18
2023-05-16T13:22:53.206Z,28.35
2023-05-16T13:25:20.830Z,17.35
2023-05-16T13:27:49.597Z,24.33
2023-05-16T13:30:17.062Z,11.05
2023-05-16T13:32:44.630Z,10.85
2023-05-16T13:35:12.399Z,8.88
2023-05-16T13:37:39.902Z,8.20
2023-05-16T13:40:11.374Z,19.33
2023-05-16T13:42:39.191Z,9.43
2023-05-16T13:45:08.180Z,10.82
2023-05-16T13:47:35.939Z,50.38
2023-05-16T13:50:06.496Z,9.68
2023-05-16T13:52:35.878Z,38.83
2023-05-16T13:55:05.443Z,8.25
2023-05-16T13:57:33.359Z,15.80
2023-05-16T14:00:24.722Z,57.60
2023-05-16T14:02:48.647Z,17.25
2023-05-16T14:05:16.122Z,8.38
2023-05-16T14:07:45.354Z,14.07
2023-05-16T14:10:14.114Z,7.97
2023-05-16T14:12:41.541Z,7.70
2023-05-16T14:15:10.100Z,8.18
2023-05-16T14:17:37.691Z,8.13
2023-05-16T14:20:10.303Z,12.48
2023-05-16T14:22:38.749Z,7.32
2023-05-16T14:25:07.284Z,7.72
2023-05-16T14:27:34.707Z,9.10
2023-05-16T14:30:02.361Z,9.23
2023-05-16T14:32:29.890Z,10.40
2023-05-16T14:34:57.630Z,8.82
2023-05-16T14:37:25.308Z,7.82
2023-05-16T14:39:53.204Z,11.77
2023-05-16T14:42:20.527Z,10.45
2023-05-16T14:44:47.808Z,7.75
2023-05-16T14:47:15.702Z,7.43
2023-05-16T14:49:43.049Z,6.88
2023-05-16T14:52:10.448Z,8.23
2023-05-16T14:54:37.728Z,8.32
2023-05-16T14:57:05.372Z,7.57
2023-05-16T14:59:32.728Z,6.35
2023-05-16T15:02:00.159Z,10.15
2023-05-16T15:04:28.661Z,3.88
2023-05-16T15:06:56.225Z,6.60
2023-05-16T15:09:23.642Z,6.25
2023-05-16T15:11:51.015Z,7.05
2023-05-16T15:14:18.673Z,7.00
2023-05-16T15:16:47.484Z,5.55
2023-05-16T15:19:15.072Z,3.58
2023-05-16T15:21:42.576Z,5.28
2023-05-16T15:24:10.149Z,6.30
2023-05-16T15:26:39.644Z,11.85
2023-05-16T15:29:07.263Z,10.20
2023-05-16T15:31:34.669Z,9.52
2023-05-16T15:34:02.262Z,9.60
2023-05-16T15:36:29.599Z,7.18
2023-05-16T15:38:56.862Z,9.00
2023-05-16T15:41:50.129Z,9.45
2023-05-16T15:44:11.698Z,8.30
2023-05-16T15:46:39.087Z,6.10
2023-05-16T15:49:06.732Z,5.65
2023-05-16T15:51:34.054Z,8.30
2023-05-16T15:54:02.757Z,8.38
2023-05-16T15:56:30.450Z,13.27
2023-05-16T15:58:57.818Z,11.07
2023-05-16T16:01:25.396Z,7.82
2023-05-16T16:03:52.970Z,8.48
2023-05-16T16:06:21.022Z,8.57
2023-05-16T16:08:48.353Z,10.50
2023-05-16T16:11:15.743Z,8.15
2023-05-16T16:13:43.205Z,12.55
2023-05-16T16:16:10.947Z,16.55
2023-05-16T16:18:38.489Z,13.40
2023-05-16T16:21:06.155Z,10.98
2023-05-16T16:23:33.658Z,15.38
2023-05-16T16:26:01.329Z,16.35
2023-05-16T16:28:30.851Z,15.57
2023-05-16T16:30:58.317Z,18.90
2023-05-16T16:33:25.971Z,15.45
2023-05-16T16:35:55.656Z,13.95
2023-05-16T16:38:23.630Z,12.52
2023-05-16T16:40:51.309Z,14.60
2023-05-16T16:43:18.661Z,15.38
2023-05-16T16:45:46.120Z,14.10
2023-05-16T16:48:16.216Z,14.05
2023-05-16T16:50:43.778Z,12.85
2023-05-16T16:53:11.763Z,8.63
2023-05-16T16:55:40.865Z,8.98
2023-05-16T16:58:08.461Z,11.80
2023-05-16T17:00:36.051Z,12.50
2023-05-16T17:03:05.085Z,6.47
2023-05-16T17:05:32.664Z,8.13
2023-05-16T17:08:00.169Z,11.30
2023-05-16T17:10:27.481Z,14.48
2023-05-16T17:13:03.119Z,192.35
2023-05-16T17:15:31.151Z,115.18
2023-05-16T17:17:58.544Z,20.60
2023-05-16T17:20:26.180Z,92.32
2023-05-16T17:22:53.531Z,29.13
2023-05-16T17:25:20.915Z,53.90
2023-05-16T17:27:48.290Z,22.48
2023-05-16T17:30:17.853Z,12.32
2023-05-16T17:32:45.945Z,11.20
2023-05-16T17:35:13.529Z,11.10
2023-05-16T17:37:41.675Z,13.48
2023-05-16T17:40:12.118Z,10.43
2023-05-16T17:42:39.785Z,15.07
2023-05-16T17:45:08.246Z,10.65
2023-05-16T17:47:35.692Z,16.55
2023-05-16T17:50:03.278Z,19.80
2023-05-16T17:52:30.794Z,12.90
2023-05-16T17:54:59.106Z,14.68
2023-05-16T17:57:26.705Z,18.88
2023-05-16T17:59:54.282Z,19.30
2023-05-16T18:02:22.104Z,21.27
2023-05-16T18:04:51.951Z,20.58
2023-05-16T18:07:19.383Z,19.08
2023-05-16T18:09:47.014Z,20.55
2023-05-16T18:12:15.159Z,19.73
2023-05-16T18:14:44.627Z,16.15
2023-05-16T18:17:13.754Z,9.10
2023-05-16T18:19:41.588Z,10.23
2023-05-16T18:22:10.283Z,10.48
2023-05-16T18:24:38.226Z,10.27
2023-05-16T18:27:05.856Z,12.63
2023-05-16T18:29:35.463Z,16.80
2023-05-16T18:32:03.200Z,9.70
2023-05-16T18:34:30.626Z,17.10
2023-05-16T18:36:58.074Z,11.13
2023-05-16T18:39:25.711Z,9.73
2023-05-16T18:41:53.174Z,13.80
2023-05-16T18:44:20.846Z,14.57
2023-05-16T18:46:48.243Z,25.35
2023-05-16T18:49:15.970Z,48.45
2023-05-16T18:51:44.118Z,48.63
2023-05-16T18:54:11.464Z,57.85
2023-05-16T18:56:38.970Z,105.53
2023-05-16T18:59:06.875Z,88.72
2023-05-16T19:01:34.566Z,90.38
2023-05-16T19:04:02.248Z,121.53
2023-05-16T19:06:29.867Z,68.22
2023-05-16T19:08:57.197Z,33.40
2023-05-16T19:11:24.654Z,45.95
2023-05-16T19:13:52.143Z,50.75
2023-05-16T19:16:19.670Z,126.53
2023-05-16T19:18:47.389Z,131.52
2023-05-16T19:21:15.953Z,158.35
2023-05-16T19:23:43.315Z,164.15
2023-05-16T19:26:13.923Z,62.78
2023-05-16T19:28:42.306Z,84.22
2023-05-16T19:31:11.095Z,129.40
2023-05-16T19:33:38.743Z,53.15
2023-05-16T19:36:06.681Z,63.28
2023-05-16T19:38:34.016Z,41.38
2023-05-16T19:41:01.502Z,35.60
2023-05-16T19:43:29.729Z,25.48
2023-05-16T19:45:57.082Z,33.33
2023-05-16T19:48:24.686Z,66.68
2023-05-16T19:50:52.467Z,260.05
2023-05-16T19:53:19.755Z,83.35
2023-05-16T19:55:49.526Z,145.13
2023-05-16T19:58:16.966Z,135.13
2023-05-16T20:00:44.504Z,70.85
2023-05-16T20:03:11.923Z,73.45
2023-05-16T20:05:39.304Z,88.60
2023-05-16T20:08:12.537Z,51.10
2023-05-16T20:10:40.564Z,71.05
2023-05-16T20:13:07.861Z,54.03
2023-05-16T20:15:35.294Z,67.97
2023-05-16T20:18:02.905Z,84.25
2023-05-16T20:20:30.443Z,140.95
2023-05-16T20:22:57.812Z,131.95
2023-05-16T20:25:25.208Z,85.97
2023-05-16T20:27:52.694Z,77.22
2023-05-16T20:30:20.114Z,27.52
2023-05-16T20:32:47.698Z,35.08
2023-05-16T20:35:17.757Z,29.55
2023-05-16T20:37:45.172Z,21.33
2023-05-16T20:40:15.490Z,29.77
2023-05-16T20:42:42.873Z,41.05
2023-05-16T20:45:10.584Z,26.05
2023-05-16T20:47:37.996Z,20.95
2023-05-16T20:50:05.862Z,30.38
2023-05-16T20:52:33.269Z,31.85
2023-05-16T20:55:01.680Z,27.83
2023-05-16T20:57:29.256Z,34.35
2023-05-16T20:59:56.789Z,25.38
2023-05-16T21:02:24.409Z,28.90
2023-05-16T21:04:52.164Z,40.42
2023-05-16T21:07:19.653Z,39.22
2023-05-16T21:09:48.407Z,74.63
2023-05-16T21:12:15.878Z,64.50
2023-05-16T21:14:44.340Z,67.63
2023-05-16T21:17:11.670Z,48.45
2023-05-16T21:19:39.195Z,29.13
2023-05-16T21:22:06.925Z,26.55
2023-05-16T21:24:37.722Z,20.90
2023-05-16T21:27:05.760Z,26.30
2023-05-16T21:29:33.320Z,20.50
2023-05-16T21:32:00.892Z,19.02
2023-05-16T21:34:28.569Z,34.67
2023-05-16T21:36:57.024Z,35.80
2023-05-16T21:39:40.179Z,22.48
2023-05-16T21:42:07.946Z,22.38
2023-05-16T21:48:05.027Z,18.67
2023-05-16T21:50:33.880Z,19.52
2023-05-16T21:53:17.461Z,27.23
2023-05-16T21:56:03.744Z,20.33
2023-05-16T21:58:35.599Z,28.63
2023-05-16T22:01:23.714Z,22.63
2023-05-16T22:04:26.302Z,22.73
2023-05-16T22:06:54.677Z,24.65
2023-05-16T22:12:37.836Z,23.48
2023-05-16T22:15:08.046Z,19.20
2023-05-16T22:17:36.045Z,18.92
2023-05-16T22:20:03.579Z,24.98
2023-05-16T22:22:31.174Z,22.02
2023-05-16T22:24:58.481Z,15.73
2023-05-16T22:27:25.974Z,20.33
2023-05-16T22:29:53.881Z,22.27
2023-05-16T22:32:22.418Z,24.17
2023-05-16T22:34:49.717Z,21.10
2023-05-16T22:37:20.491Z,25.00
2023-05-16T22:40:08.346Z,23.27
2023-05-16T22:42:36.967Z,21.27
2023-05-16T22:45:04.631Z,15.13
2023-05-16T22:47:32.049Z,19.75
2023-05-16T22:49:59.427Z,16.15
2023-05-16T22:52:26.901Z,29.73
2023-05-16T22:54:54.209Z,21.00
2023-05-16T22:57:21.586Z,14.25
2023-05-16T22:59:48.882Z,20.85
2023-05-16T23:02:16.422Z,25.63
2023-05-16T23:04:43.884Z,21.50
2023-05-16T23:07:11.395Z,21.02
2023-05-16T23:09:38.774Z,19.00
2023-05-16T23:12:06.709Z,17.27
2023-05-16T23:14:34.017Z,19.95
2023-05-16T23:17:04.040Z,19.77
2023-05-16T23:19:31.736Z,24.02
2023-05-16T23:21:59.292Z,18.58
2023-05-16T23:24:26.581Z,21.20
2023-05-16T23:26:53.938Z,20.45
2023-05-16T23:29:21.234Z,19.27
2023-05-16T23:31:48.586Z,20.60
2023-05-16T23:34:15.962Z,19.27
2023-05-16T23:36:43.400Z,16.98
2023-05-16T23:39:10.731Z,22.42
2023-05-16T23:41:38.142Z,17.00
2023-05-16T23:44:05.719Z,17.70
2023-05-16T23:46:33.039Z,24.52
2023-05-16T23:49:00.471Z,17.98
2023-05-16T23:51:31.169Z,18.73
2023-05-16T23:54:02.845Z,13.43
2023-05-16T23:56:30.139Z,16.60
2023-05-16T23:58:57.467Z,16.45
